Time;durP1;ratioP1;P1;durP2;ratioP2;P2;SDS_P1;SDS_P2;PMS_P1;PMS_P2;Temp;Humidity;BMP_temperature;BMP_pressure;BME280_temperature;BME280_humidity;BME280_pressure;Samples;Min_cycle;Max_cycle;Signal;HPM_P1;HPM_P2
2022/04/23 00:01:58;;;;;;;12.65;6.45;;;10.50;99.90;;;;;;5095547;28;20131;-47
2022/04/23 00:04:24;;;;;;;12.77;7.30;;;12.30;99.90;;;;;;5096426;28;20035;-44
2022/04/23 00:06:50;;;;;;;11.45;7.30;;;10.60;99.90;;;;;;5097080;28;20039;-46
2022/04/23 00:09:15;;;;;;;11.20;7.45;;;11.90;99.90;;;;;;5098151;28;20040;-44
2022/04/23 00:11:41;;;;;;;11.88;6.53;;;10.60;99.90;;;;;;5096493;28;20035;-48
2022/04/23 00:14:07;;;;;;;12.30;6.82;;;10.90;99.90;;;;;;5096439;28;20039;-42
2022/04/23 00:16:33;;;;;;;14.23;6.55;;;10.50;99.90;;;;;;5095594;28;20036;-43
2022/04/23 00:18:59;;;;;;;13.75;7.03;;;11.10;99.90;;;;;;5097647;28;20040;-43
2022/04/23 00:21:25;;;;;;;16.15;7.25;;;10.40;99.90;;;;;;5095519;28;20038;-43
2022/04/23 00:23:51;;;;;;;13.57;7.70;;;10.20;99.90;;;;;;5096361;28;20036;-46
2022/04/23 00:26:18;;;;;;;12.63;7.13;;;10.50;99.90;;;;;;5095294;28;20049;-43
2022/04/23 00:28:44;;;;;;;13.02;6.80;;;10.30;99.90;;;;;;5096573;28;20050;-44
2022/04/23 00:31:10;;;;;;;13.45;6.32;;;10.20;99.90;;;;;;5095144;28;20458;-43
2022/04/23 00:33:38;;;;;;;10.38;6.25;;;10.40;99.90;;;;;;5096019;28;20063;-43
2022/04/23 00:36:05;;;;;;;10.88;6.57;;;10.20;99.90;;;;;;5095999;27;20036;-45
2022/04/23 00:38:33;;;;;;;11.27;6.68;;;10.30;99.90;;;;;;5096398;28;20069;-43
2022/04/23 00:40:59;;;;;;;8.38;5.30;;;10.30;99.90;;;;;;5095727;28;20059;-45
2022/04/23 00:43:33;;;;;;;13.73;7.05;;;11.50;99.90;;;;;;5095646;28;20453;-48
2022/04/23 00:46:00;;;;;;;11.98;6.07;;;11.20;99.90;;;;;;5095977;28;20039;-49
2022/04/23 00:48:26;;;;;;;12.07;6.90;;;10.40;99.90;;;;;;5097054;28;20407;-43
2022/04/23 00:50:55;;;;;;;12.35;6.53;;;10.20;99.90;;;;;;5095726;28;20078;-44
2022/04/23 00:53:22;;;;;;;16.65;7.30;;;10.40;99.90;;;;;;5093989;28;20039;-46
2022/04/23 00:55:48;;;;;;;13.20;7.47;;;11.10;99.90;;;;;;5094674;28;20116;-45
2022/04/23 00:58:19;;;;;;;12.95;7.50;;;10.10;99.90;;;;;;5095651;28;20054;-43
2022/04/23 01:00:45;;;;;;;11.63;7.30;;;10.90;99.90;;;;;;5096034;28;20036;-43
2022/04/23 01:03:14;;;;;;;10.38;7.22;;;10.10;99.90;;;;;;5096567;28;20522;-46
2022/04/23 01:05:46;;;;;;;14.10;7.25;;;10.20;99.90;;;;;;5095624;28;20062;-45
2022/04/23 01:08:18;;;;;;;16.10;8.38;;;10.00;99.90;;;;;;5096538;28;20199;-45
2022/04/23 01:10:48;;;;;;;14.80;7.95;;;10.10;99.90;;;;;;5094999;28;20039;-43
2022/04/23 01:13:15;;;;;;;14.88;7.85;;;10.20;99.90;;;;;;5095062;28;20055;-48
2022/04/23 01:16:07;;;;;;;15.82;8.70;;;10.00;99.90;;;;;;5095976;28;20110;-46
2022/04/23 01:18:34;;;;;;;17.15;7.63;;;10.00;99.90;;;;;;5095666;28;20399;-44
2022/04/23 01:21:04;;;;;;;11.30;7.40;;;10.10;99.90;;;;;;5095975;28;20044;-45
2022/04/23 01:23:30;;;;;;;18.27;8.60;;;11.00;99.90;;;;;;5097036;28;20451;-46
2022/04/23 01:25:59;;;;;;;13.25;7.80;;;10.50;99.90;;;;;;5095830;28;20035;-43
2022/04/23 01:28:27;;;;;;;12.20;8.02;;;11.70;99.90;;;;;;5095159;28;20314;-45
2022/04/23 01:30:57;;;;;;;10.88;8.18;;;11.50;99.90;;;;;;5094629;28;20047;-43
2022/04/23 01:33:23;;;;;;;11.68;8.63;;;10.90;99.90;;;;;;5094483;28;20519;-44
2022/04/23 01:35:50;;;;;;;15.07;8.40;;;9.90;99.90;;;;;;5093909;28;20409;-44
2022/04/23 01:38:16;;;;;;;14.70;8.43;;;11.90;99.90;;;;;;5095301;28;20040;-48
2022/04/23 01:40:42;;;;;;;12.73;8.82;;;9.70;99.90;;;;;;5094589;28;20528;-44
2022/04/23 01:43:08;;;;;;;10.95;7.82;;;9.80;99.90;;;;;;5093648;28;20149;-44
2022/04/23 01:45:35;;;;;;;14.75;8.70;;;9.70;99.90;;;;;;5093525;28;20036;-43
2022/04/23 01:48:01;;;;;;;13.18;9.35;;;9.80;99.90;;;;;;5095515;28;20037;-46
2022/04/23 01:50:27;;;;;;;16.25;8.95;;;9.60;99.90;;;;;;5094631;28;20538;-43
2022/04/23 01:52:52;;;;;;;12.68;8.93;;;9.80;99.90;;;;;;5094802;28;20092;-44
2022/04/23 01:55:18;;;;;;;15.23;8.15;;;9.80;99.90;;;;;;5094520;28;20039;-43
2022/04/23 01:57:44;;;;;;;11.90;6.95;;;9.90;99.90;;;;;;5094746;28;20103;-45
2022/04/23 02:00:13;;;;;;;15.68;9.18;;;9.90;99.90;;;;;;5092826;28;20067;-45
2022/04/23 02:02:39;;;;;;;13.48;9.10;;;9.80;99.90;;;;;;5093692;28;20851;-45
2022/04/23 02:05:06;;;;;;;10.80;7.30;;;10.00;99.90;;;;;;5093699;28;20127;-44
2022/04/23 02:07:45;;;;;;;13.80;8.65;;;9.80;99.90;;;;;;5094626;28;20059;-47
2022/04/23 02:10:13;;;;;;;15.18;8.15;;;10.00;99.90;;;;;;5093917;28;20504;-44
2022/04/23 02:12:39;;;;;;;16.63;10.45;;;10.80;99.90;;;;;;5093614;28;20042;-43
2022/04/23 02:15:07;;;;;;;12.68;8.70;;;10.70;99.90;;;;;;5093520;28;20380;-46
2022/04/23 02:17:37;;;;;;;10.13;7.72;;;9.90;99.90;;;;;;5093882;28;20043;-43
2022/04/23 02:20:08;;;;;;;15.90;9.25;;;9.90;99.90;;;;;;5093971;28;20471;-43
2022/04/23 02:22:34;;;;;;;15.15;8.65;;;9.90;99.90;;;;;;5094270;28;20380;-45
2022/04/23 02:25:01;;;;;;;14.70;9.80;;;11.10;99.90;;;;;;5093636;28;20124;-48
2022/04/23 02:27:27;;;;;;;13.38;9.65;;;9.80;99.90;;;;;;5094375;28;20047;-45
2022/04/23 02:29:54;;;;;;;15.25;8.73;;;9.70;99.90;;;;;;5093911;28;20611;-48
2022/04/23 02:32:20;;;;;;;13.52;9.30;;;11.10;99.90;;;;;;5094518;28;20523;-44
2022/04/23 02:34:46;;;;;;;12.23;9.68;;;9.80;99.90;;;;;;5094204;28;20040;-45
2022/04/23 02:37:12;;;;;;;15.65;10.98;;;9.50;99.90;;;;;;5093846;28;20708;-48
2022/04/23 02:39:41;;;;;;;16.17;10.20;;;10.80;99.90;;;;;;5093913;28;20039;-46
2022/04/23 02:42:09;;;;;;;14.90;10.43;;;9.60;99.90;;;;;;5094422;28;20461;-47
2022/04/23 02:44:37;;;;;;;16.27;9.88;;;9.70;99.90;;;;;;5093141;28;20530;-44
2022/04/23 02:47:04;;;;;;;22.90;10.63;;;9.50;99.90;;;;;;5093927;28;20568;-47
2022/04/23 02:49:30;;;;;;;15.90;9.98;;;9.50;99.90;;;;;;5094255;28;20047;-46
2022/04/23 02:51:55;;;;;;;14.25;9.25;;;9.60;99.90;;;;;;5092091;28;20140;-49
2022/04/23 02:54:21;;;;;;;15.15;10.23;;;9.40;99.90;;;;;;5094127;28;20291;-47
2022/04/23 02:56:47;;;;;;;19.05;10.18;;;10.90;99.90;;;;;;5092814;28;20352;-48
2022/04/23 02:59:12;;;;;;;13.88;9.55;;;11.20;99.90;;;;;;5093011;28;20205;-43
2022/04/23 03:01:39;;;;;;;16.65;10.40;;;10.40;99.90;;;;;;5093818;28;20127;-48
2022/04/23 03:04:05;;;;;;;18.38;10.90;;;10.80;99.90;;;;;;5093135;28;20204;-48
2022/04/23 03:06:33;;;;;;;16.58;10.32;;;9.50;99.90;;;;;;5092782;28;20036;-46
2022/04/23 03:09:03;;;;;;;14.63;10.00;;;10.00;99.90;;;;;;5093002;28;20069;-46
2022/04/23 03:11:32;;;;;;;17.88;10.10;;;9.50;99.90;;;;;;5093300;28;20039;-49
2022/04/23 03:13:58;;;;;;;13.98;8.45;;;10.40;99.90;;;;;;5092884;28;20702;-47
2022/04/23 03:16:31;;;;;;;13.45;9.30;;;9.40;99.90;;;;;;5092870;28;20071;-45
2022/04/23 03:18:57;;;;;;;19.63;10.38;;;9.40;99.90;;;;;;5092458;28;20079;-48
2022/04/23 03:21:23;;;;;;;14.55;10.32;;;9.20;99.90;;;;;;5093796;28;20146;-44
2022/04/23 03:23:48;;;;;;;14.75;9.75;;;9.20;99.90;;;;;;5092252;28;20089;-48
2022/04/23 03:26:14;;;;;;;16.17;9.75;;;9.30;99.90;;;;;;5093355;28;20526;-49
2022/04/23 03:28:40;;;;;;;17.70;11.32;;;9.40;99.90;;;;;;5093039;28;20042;-49
2022/04/23 03:31:05;;;;;;;14.63;9.02;;;10.60;99.90;;;;;;5095443;28;20047;-47
2022/04/23 03:33:32;;;;;;;11.55;9.05;;;9.40;99.90;;;;;;5098231;28;20066;-47
2022/04/23 03:35:58;;;;;;;15.23;9.70;;;9.30;99.90;;;;;;5098007;28;20120;-47
2022/04/23 03:38:25;;;;;;;14.10;8.95;;;9.40;99.90;;;;;;5098129;28;20048;-43
2022/04/23 03:40:53;;;;;;;14.65;9.68;;;9.60;99.90;;;;;;5098097;28;20187;-47
2022/04/23 03:43:20;;;;;;;17.50;9.43;;;9.40;99.90;;;;;;5098174;28;20044;-48
2022/04/23 03:45:50;;;;;;;12.68;9.18;;;9.20;99.90;;;;;;5097863;28;20043;-44
2022/04/23 03:48:15;;;;;;;14.13;9.10;;;9.30;99.90;;;;;;5098283;28;20511;-45
2022/04/23 03:50:41;;;;;;;12.98;8.68;;;9.20;99.90;;;;;;5097797;28;20503;-43
2022/04/23 03:53:08;;;;;;;16.50;10.20;;;9.80;99.90;;;;;;5098575;28;20941;-44
2022/04/23 03:55:35;;;;;;;15.02;7.72;;;9.20;99.90;;;;;;5098076;28;20044;-44
2022/04/23 03:58:01;;;;;;;12.52;9.48;;;9.40;99.90;;;;;;5101843;28;20043;-44
2022/04/23 04:00:28;;;;;;;12.38;8.95;;;9.20;99.90;;;;;;5100682;28;20593;-45
2022/04/23 04:02:55;;;;;;;12.98;9.18;;;9.20;99.90;;;;;;5102518;28;20437;-44
2022/04/23 04:05:22;;;;;;;11.50;8.82;;;9.20;99.90;;;;;;5101911;28;20179;-46
2022/04/23 04:07:48;;;;;;;16.10;10.35;;;10.10;99.90;;;;;;5102181;28;20051;-45
2022/04/23 04:10:16;;;;;;;16.10;9.25;;;9.00;99.90;;;;;;5102464;27;20073;-44
2022/04/23 04:12:42;;;;;;;12.75;9.85;;;9.60;99.90;;;;;;5100172;28;20040;-43
2022/04/23 04:15:10;;;;;;;13.20;9.13;;;9.10;99.90;;;;;;5101416;28;20050;-43
2022/04/23 04:17:37;;;;;;;13.82;8.57;;;9.00;99.90;;;;;;5101111;28;20058;-47
2022/04/23 04:20:07;;;;;;;11.95;9.27;;;9.70;99.90;;;;;;5098907;28;20511;-44
2022/04/23 04:22:34;;;;;;;14.25;9.90;;;9.10;99.90;;;;;;5101166;28;20481;-46
2022/04/23 04:25:02;;;;;;;12.95;9.48;;;9.00;99.90;;;;;;5097739;28;20561;-47
2022/04/23 04:27:28;;;;;;;12.77;9.25;;;9.10;99.90;;;;;;5095216;28;20496;-47
2022/04/23 04:29:54;;;;;;;14.35;9.30;;;9.00;99.90;;;;;;5096264;28;20159;-43
2022/04/23 04:32:22;;;;;;;13.45;9.45;;;9.00;99.90;;;;;;5095917;28;20078;-46
2022/04/23 04:34:47;;;;;;;13.75;9.40;;;9.00;99.90;;;;;;5095630;28;20409;-44
2022/04/23 04:37:13;;;;;;;13.65;10.10;;;9.00;99.90;;;;;;5095077;28;20040;-49
2022/04/23 04:39:43;;;;;;;9.77;5.65;;;9.00;99.90;;;;;;5095857;28;20031;-48
2022/04/23 04:42:10;;;;;;;13.20;9.43;;;9.00;99.90;;;;;;5096312;28;20047;-46
2022/04/23 04:44:36;;;;;;;12.48;9.18;;;9.10;99.90;;;;;;5096524;28;20038;-45
2022/04/23 04:47:04;;;;;;;13.45;9.52;;;9.10;99.90;;;;;;5095849;28;20039;-45
2022/04/23 04:49:30;;;;;;;11.40;8.45;;;9.00;99.90;;;;;;5094567;28;21180;-46
2022/04/23 04:51:56;;;;;;;14.25;10.48;;;9.40;99.90;;;;;;5095472;28;20040;-45
2022/04/23 04:54:22;;;;;;;13.65;10.40;;;9.70;99.90;;;;;;5096034;28;20869;-45
2022/04/23 04:56:52;;;;;;;12.70;9.43;;;9.10;99.90;;;;;;5094991;28;20221;-48
2022/04/23 04:59:20;;;;;;;12.00;8.82;;;9.40;99.90;;;;;;5094642;28;20099;-42
2022/04/23 05:01:47;;;;;;;11.98;7.40;;;9.20;99.90;;;;;;5093847;28;20043;-43
2022/04/23 05:04:13;;;;;;;12.05;9.55;;;9.40;99.90;;;;;;5094924;28;20060;-44
2022/04/23 05:06:38;;;;;;;13.13;9.25;;;9.20;99.90;;;;;;5094452;28;20152;-43
2022/04/23 05:09:04;;;;;;;10.77;7.50;;;9.20;99.90;;;;;;5094579;28;20047;-44
2022/04/23 05:11:32;;;;;;;10.75;8.65;;;9.30;99.90;;;;;;5095406;28;20038;-44
2022/04/23 05:13:58;;;;;;;11.27;7.50;;;9.90;99.90;;;;;;5096861;28;20067;-45
2022/04/23 05:16:24;;;;;;;12.23;9.10;;;9.40;99.90;;;;;;5095170;28;20123;-43
2022/04/23 05:18:49;;;;;;;11.63;8.85;;;9.10;99.90;;;;;;5095275;28;20050;-45
2022/04/23 05:21:15;;;;;;;11.40;9.25;;;9.50;99.90;;;;;;5095213;28;20036;-44
2022/04/23 05:23:41;;;;;;;12.43;9.50;;;9.70;99.90;;;;;;5095176;28;20216;-44
2022/04/23 05:26:09;;;;;;;13.43;9.25;;;9.60;99.90;;;;;;5095797;28;20035;-46
2022/04/23 05:28:35;;;;;;;12.60;9.05;;;9.40;99.90;;;;;;5096007;28;20078;-47
2022/04/23 05:31:01;;;;;;;16.10;9.13;;;11.40;99.90;;;;;;5091915;28;20405;-46
2022/04/23 05:33:31;;;;;;;11.77;8.73;;;9.80;99.90;;;;;;5094067;28;20142;-45
2022/04/23 05:35:57;;;;;;;11.48;7.40;;;9.90;99.90;;;;;;5093441;28;20048;-45
2022/04/23 05:38:23;;;;;;;10.43;8.70;;;11.40;99.90;;;;;;5093737;28;20035;-48
2022/04/23 05:40:51;;;;;;;12.20;8.27;;;10.80;99.90;;;;;;5094304;28;20039;-46
2022/04/23 05:43:17;;;;;;;10.63;7.57;;;11.20;99.90;;;;;;5094743;28;20039;-48
2022/04/23 05:45:43;;;;;;;11.50;7.90;;;11.80;99.90;;;;;;5093166;28;20027;-48
2022/04/23 05:48:09;;;;;;;11.68;6.93;;;12.10;99.90;;;;;;5093794;28;20115;-46
2022/04/23 05:50:35;;;;;;;10.73;6.85;;;12.40;99.90;;;;;;5093417;28;20047;-44
2022/04/23 05:53:01;;;;;;;8.55;6.68;;;12.60;99.90;;;;;;5093440;28;20549;-43
2022/04/23 05:55:31;;;;;;;11.57;8.25;;;14.40;99.90;;;;;;5093515;28;20051;-46
2022/04/23 05:57:56;;;;;;;9.18;6.60;;;14.50;99.90;;;;;;5093964;28;20055;-45
2022/04/23 06:00:22;;;;;;;10.55;7.65;;;15.30;99.90;;;;;;5094100;28;20413;-45
2022/04/23 06:02:48;;;;;;;9.85;7.07;;;14.50;99.90;;;;;;5094242;28;20452;-45
2022/04/23 06:05:15;;;;;;;9.43;6.35;;;13.80;99.90;;;;;;5094085;28;20035;-48
2022/04/23 06:07:41;;;;;;;10.15;7.05;;;14.10;99.90;;;;;;5093975;27;20045;-46
2022/04/23 06:10:07;;;;;;;11.52;7.07;;;15.60;99.90;;;;;;5094250;28;20994;-45
2022/04/23 06:12:34;;;;;;;8.85;7.20;;;14.70;99.90;;;;;;5093223;28;20036;-43
2022/04/23 06:14:59;;;;;;;11.13;6.95;;;14.40;99.90;;;;;;5094848;27;20118;-46
2022/04/23 06:17:27;;;;;;;10.50;7.30;;;14.60;99.90;;;;;;5093758;28;20058;-48
2022/04/23 06:19:53;;;;;;;9.18;7.15;;;14.90;99.90;;;;;;5092950;28;20043;-46
2022/04/23 06:22:19;;;;;;;9.82;7.53;;;14.70;99.90;;;;;;5092212;28;20046;-46
2022/04/23 06:24:45;;;;;;;8.80;6.70;;;16.00;99.90;;;;;;5092609;28;20050;-45
2022/04/23 06:27:13;;;;;;;9.38;6.65;;;15.20;99.90;;;;;;5093705;28;20467;-44
2022/04/23 06:29:39;;;;;;;9.10;7.68;;;16.10;99.90;;;;;;5094089;28;20481;-46
2022/04/23 06:32:06;;;;;;;9.30;7.45;;;15.40;99.90;;;;;;5094398;28;20045;-45
2022/04/23 06:34:31;;;;;;;10.68;7.32;;;15.70;99.90;;;;;;5093605;28;20563;-48
2022/04/23 06:36:57;;;;;;;21.65;11.90;;;15.90;99.90;;;;;;5091934;28;20055;-48
2022/04/23 06:39:22;;;;;;;43.17;18.35;;;15.80;99.90;;;;;;5094746;28;20078;-46
2022/04/23 06:41:48;;;;;;;1706.78;999.90;;;17.00;99.90;;;;;;5093031;28;20467;-47
2022/04/23 06:44:15;;;;;;;596.35;392.05;;;15.90;99.90;;;;;;5094635;28;20050;-46
2022/04/23 06:46:40;;;;;;;699.65;640.92;;;16.20;99.90;;;;;;5094531;28;20093;-47
2022/04/23 06:49:06;;;;;;;871.45;780.63;;;16.30;99.90;;;;;;5092492;28;20036;-49
2022/04/23 06:51:32;;;;;;;788.85;711.10;;;18.40;99.90;;;;;;5093140;28;20940;-48
2022/04/23 06:53:58;;;;;;;346.63;326.02;;;18.00;99.90;;;;;;5093454;28;20595;-50
2022/04/23 06:56:26;;;;;;;839.83;766.85;;;19.30;99.90;;;;;;5094086;28;20050;-47
2022/04/23 06:58:52;;;;;;;38.30;34.13;;;17.50;99.90;;;;;;5093615;28;20035;-46
2022/04/23 07:01:18;;;;;;;9.35;8.35;;;19.10;99.90;;;;;;5092934;28;20050;-47
2022/04/23 07:03:43;;;;;;;9.85;7.10;;;17.40;99.90;;;;;;5094445;28;20118;-51
2022/04/23 07:06:11;;;;;;;11.43;7.40;;;19.50;99.90;;;;;;5090814;28;20126;-51
2022/04/23 07:08:40;;;;;;;10.88;6.97;;;18.80;99.90;;;;;;5093095;28;20048;-54
2022/04/23 07:11:06;;;;;;;9.98;7.97;;;18.00;99.90;;;;;;5092792;28;20044;-52
2022/04/23 07:13:32;;;;;;;8.13;6.80;;;18.00;99.90;;;;;;5093831;28;20120;-51
2022/04/23 07:16:00;;;;;;;10.50;7.40;;;18.20;99.90;;;;;;5092662;28;20530;-50
2022/04/23 07:18:26;;;;;;;9.18;6.53;;;18.80;99.90;;;;;;5091550;28;20059;-50
2022/04/23 07:20:52;;;;;;;11.15;7.30;;;18.80;99.90;;;;;;5092043;28;20546;-48
2022/04/23 07:26:02;;;;;;;10.60;8.00;;;19.40;99.90;;;;;;5093065;28;20051;-50
2022/04/23 07:28:30;;;;;;;9.43;6.18;;;20.60;99.90;;;;;;5093037;28;20496;-49
2022/04/23 07:30:56;;;;;;;9.15;6.82;;;20.90;99.90;;;;;;5091522;28;20446;-53
2022/04/23 07:38:52;;;;;;;9.63;7.15;;;18.80;99.90;;;;;;5096641;28;20105;-46
2022/04/23 07:41:19;;;;;;;8.80;7.07;;;18.30;99.90;;;;;;5096294;28;20041;-45
2022/04/23 07:43:45;;;;;;;8.52;6.47;;;17.80;99.90;;;;;;5098365;28;20507;-45
2022/04/23 07:46:11;;;;;;;9.85;7.55;;;17.70;99.90;;;;;;5098169;28;20031;-51
2022/04/23 07:48:38;;;;;;;11.35;8.32;;;17.50;99.90;;;;;;5097076;28;20116;-48
2022/04/23 07:51:04;;;;;;;8.10;6.30;;;17.40;99.90;;;;;;5096839;28;20039;-45
2022/04/23 07:53:29;;;;;;;10.38;6.30;;;17.20;99.90;;;;;;5096104;28;20101;-47
2022/04/23 07:55:55;;;;;;;10.80;7.10;;;17.60;99.90;;;;;;5098380;27;20031;-46
2022/04/23 07:58:21;;;;;;;10.50;6.80;;;16.40;99.90;;;;;;5096322;28;20040;-46
2022/04/23 08:00:47;;;;;;;14.55;7.25;;;16.20;99.90;;;;;;5097504;28;20043;-51
2022/04/23 08:03:12;;;;;;;8.98;7.35;;;15.90;99.90;;;;;;5097803;28;20118;-45
2022/04/23 08:05:40;;;;;;;9.38;5.90;;;17.10;99.90;;;;;;5095866;28;20442;-46
2022/04/23 08:08:06;;;;;;;9.57;7.68;;;15.70;99.90;;;;;;5096810;28;20415;-48
2022/04/23 08:10:31;;;;;;;9.90;7.65;;;15.50;99.90;;;;;;5095443;28;20696;-46
2022/04/23 08:12:59;;;;;;;10.10;7.25;;;15.90;99.90;;;;;;5096226;28;20031;-48
2022/04/23 08:15:28;;;;;;;11.13;7.50;;;15.00;99.90;;;;;;5097952;28;20039;-46
2022/04/23 08:17:54;;;;;;;11.27;7.55;;;14.80;99.90;;;;;;5096264;28;20632;-46
2022/04/23 08:20:21;;;;;;;10.18;8.18;;;15.70;99.90;;;;;;5095949;28;20172;-49
2022/04/23 08:22:47;;;;;;;13.88;7.63;;;15.60;99.90;;;;;;5095558;28;20395;-47
2022/04/23 08:25:13;;;;;;;10.18;7.38;;;15.40;99.90;;;;;;5095579;28;20047;-47
2022/04/23 08:27:49;;;;;;;10.13;7.53;;;15.20;99.90;;;;;;5096811;28;20035;-49
2022/04/23 08:33:01;;;;;;;10.68;7.00;;;16.50;99.90;;;;;;5095895;28;20146;-48
2022/04/23 08:35:26;;;;;;;11.10;7.72;;;16.80;99.90;;;;;;5094268;28;20229;-50
2022/04/23 08:37:52;;;;;;;10.38;7.18;;;15.90;99.90;;;;;;5094500;28;20435;-46
2022/04/23 08:40:19;;;;;;;9.13;7.25;;;16.40;99.90;;;;;;5096479;28;20126;-45
2022/04/23 08:42:45;;;;;;;9.48;6.55;;;17.70;99.90;;;;;;5094474;28;20032;-45
2022/04/23 08:45:13;;;;;;;9.93;6.72;;;15.30;99.90;;;;;;5095943;28;20043;-46
2022/04/23 08:47:44;;;;;;;11.35;7.20;;;15.50;99.90;;;;;;5094634;28;20065;-47
2022/04/23 08:50:10;;;;;;;10.45;7.65;;;15.60;99.90;;;;;;5095942;28;20046;-47
2022/04/23 08:52:36;;;;;;;9.75;7.25;;;15.90;99.90;;;;;;5095617;28;20035;-44
2022/04/23 08:55:06;;;;;;;8.82;7.40;;;16.30;99.90;;;;;;5095135;28;20067;-49
2022/04/23 08:57:33;;;;;;;10.45;7.60;;;15.70;99.90;;;;;;5095436;28;20131;-49
2022/04/23 09:00:00;;;;;;;8.80;6.93;;;17.10;99.90;;;;;;5093776;28;20089;-48
2022/04/23 09:02:27;;;;;;;10.30;7.65;;;16.90;99.90;;;;;;5094319;28;20595;-48
2022/04/23 09:04:56;;;;;;;10.57;7.72;;;15.30;99.90;;;;;;5094134;28;20035;-47
2022/04/23 09:07:25;;;;;;;8.88;7.40;;;15.40;99.90;;;;;;5093947;28;20092;-45
2022/04/23 09:09:56;;;;;;;9.95;6.57;;;17.50;99.90;;;;;;5094939;28;20061;-47
2022/04/23 09:12:26;;;;;;;11.52;7.32;;;15.90;99.90;;;;;;5095377;28;20040;-46
2022/04/23 09:15:03;;;;;;;11.07;7.18;;;15.70;99.90;;;;;;5095452;28;22109;-50
2022/04/23 09:25:49;;;;;;;10.77;7.40;;;16.60;99.90;;;;;;5093790;28;20070;-45
2022/04/23 09:28:26;;;;;;;10.75;7.75;;;16.90;99.90;;;;;;5095011;28;20465;-45
2022/04/23 09:30:55;;;;;;;9.57;8.07;;;16.20;99.90;;;;;;5095300;28;20063;-45
2022/04/23 09:33:28;;;;;;;10.60;7.68;;;18.90;99.90;;;;;;5094064;28;20531;-47
2022/04/23 09:35:55;;;;;;;9.13;6.05;;;16.60;99.90;;;;;;5095222;28;20054;-47
2022/04/23 09:38:23;;;;;;;9.68;8.02;;;16.10;99.90;;;;;;5094470;28;20043;-46
2022/04/23 09:40:54;;;;;;;7.65;5.72;;;15.80;99.90;;;;;;5092970;28;20031;-52
2022/04/23 09:43:31;;;;;;;11.32;7.55;;;15.60;99.90;;;;;;5094773;28;20052;-47
2022/04/23 09:46:03;;;;;;;13.85;8.05;;;17.50;99.90;;;;;;5095119;28;20091;-47
2022/04/23 09:48:30;;;;;;;28.77;21.05;;;15.60;99.90;;;;;;5094291;28;20068;-48
2022/04/23 09:50:56;;;;;;;11.95;7.05;;;15.60;99.90;;;;;;5094201;28;20043;-52
2022/04/23 09:53:25;;;;;;;10.93;8.32;;;16.10;99.90;;;;;;5093101;28;20314;-49
2022/04/23 09:55:51;;;;;;;23.40;12.55;;;15.70;99.90;;;;;;5093799;28;20046;-48
2022/04/23 09:58:17;;;;;;;139.73;84.72;;;15.80;99.90;;;;;;5093300;28;21021;-49
2022/04/23 10:00:47;;;;;;;10.73;6.03;;;15.80;99.90;;;;;;5094706;28;20035;-47
2022/04/23 10:03:15;;;;;;;10.73;8.63;;;16.80;99.90;;;;;;5095202;28;20528;-46
2022/04/23 10:05:47;;;;;;;10.48;8.98;;;16.00;99.90;;;;;;5094643;28;20047;-48
2022/04/23 10:08:18;;;;;;;20.42;11.77;;;16.30;99.90;;;;;;5094379;28;20052;-51
2022/04/23 10:10:52;;;;;;;10.75;7.85;;;18.40;99.90;;;;;;5094019;28;20063;-49
2022/04/23 10:13:20;;;;;;;10.20;8.45;;;16.10;99.90;;;;;;5094118;28;20049;-50
2022/04/23 10:15:48;;;;;;;8.48;6.35;;;16.00;99.90;;;;;;5094983;28;20043;-51
2022/04/23 10:18:15;;;;;;;9.90;7.30;;;16.10;99.90;;;;;;5094105;28;20305;-47
2022/04/23 10:20:52;;;;;;;9.43;7.15;;;16.10;99.90;;;;;;5092844;28;20040;-48
2022/04/23 10:23:40;;;;;;;11.18;6.70;;;16.40;99.90;;;;;;5095229;28;20062;-50
2022/04/23 10:26:46;;;;;;;17.08;7.47;;;16.30;99.90;;;;;;5092467;28;20028;-50
2022/04/23 10:29:17;;;;;;;10.23;7.00;;;16.30;99.90;;;;;;5049809;28;20183;-49
2022/04/23 10:31:43;;;;;;;41.47;8.30;;;16.30;99.90;;;;;;5048922;28;20102;-46
2022/04/23 10:34:30;;;;;;;10.73;7.53;;;17.90;99.90;;;;;;5049645;28;20048;-50
2022/04/23 10:37:18;;;;;;;8.05;6.50;;;16.60;99.90;;;;;;5032577;28;20176;-45
2022/04/23 10:40:14;;;;;;;7.65;6.63;;;16.40;99.90;;;;;;5049581;28;20143;-48
2022/04/23 10:42:59;;;;;;;10.63;7.75;;;16.40;99.90;;;;;;5029062;28;20130;-49
2022/04/23 10:45:32;;;;;;;9.30;7.43;;;17.40;99.90;;;;;;5030909;28;20048;-47
2022/04/23 10:48:24;;;;;;;10.98;6.97;;;16.40;99.90;;;;;;5029086;28;20057;-50
2022/04/23 10:51:10;;;;;;;16.02;7.88;;;16.40;99.90;;;;;;5029285;28;20045;-48
2022/04/23 10:53:39;;;;;;;9.60;7.60;;;16.90;99.90;;;;;;5029375;28;20056;-47
2022/04/23 10:56:17;;;;;;;121.97;24.00;;;16.70;99.90;;;;;;5030056;28;20638;-46
2022/04/23 10:58:43;;;;;;;8.90;7.40;;;16.80;99.90;;;;;;5028978;28;20068;-46
2022/04/23 11:01:24;;;;;;;11.23;7.68;;;16.80;99.90;;;;;;5029553;28;20769;-48
2022/04/23 11:03:58;;;;;;;12.32;8.20;;;18.20;99.90;;;;;;5028390;28;20557;-46
2022/04/23 11:12:14;;;;;;;10.05;7.22;;;16.80;99.90;;;;;;5069909;28;20046;-50
2022/04/23 11:12:26;;;;;;;9.48;7.05;;;16.90;99.90;;;;;;5069444;28;20100;-46
2022/04/23 11:14:55;;;;;;;9.95;7.80;;;16.90;99.90;;;;;;5069025;28;20048;-47
2022/04/23 11:17:37;;;;;;;9.23;7.18;;;17.70;99.90;;;;;;5069762;28;20167;-46
2022/04/23 11:20:04;;;;;;;11.38;7.47;;;16.70;99.90;;;;;;5090167;28;21342;-51
2022/04/23 11:22:30;;;;;;;14.18;8.15;;;17.10;99.90;;;;;;5093531;28;20038;-48
2022/04/23 11:24:57;;;;;;;8.85;7.50;;;19.10;99.90;;;;;;5091575;28;20032;-52
2022/04/23 11:27:36;;;;;;;15.30;7.20;;;17.00;99.90;;;;;;5092505;28;20100;-51
2022/04/23 11:30:04;;;;;;;13.25;7.43;;;17.10;99.90;;;;;;5093734;28;20112;-47
2022/04/23 11:32:33;;;;;;;10.18;7.82;;;17.10;99.90;;;;;;5091318;28;20306;-49
2022/04/23 11:35:03;;;;;;;10.45;4.97;;;17.30;99.90;;;;;;5092261;28;20054;-46
2022/04/23 11:37:32;;;;;;;10.50;7.70;;;18.90;99.90;;;;;;5092336;28;20050;-46
2022/04/23 11:40:07;;;;;;;107.50;18.95;;;17.00;99.90;;;;;;5092132;28;20365;-50
2022/04/23 11:42:47;;;;;;;8.98;7.38;;;16.90;99.90;;;;;;5093240;28;20032;-48
2022/04/23 11:45:18;;;;;;;9.63;6.70;;;17.20;99.90;;;;;;5126885;27;20062;-51
2022/04/23 11:47:44;;;;;;;7.88;6.00;;;17.10;99.90;;;;;;5093545;28;20042;-48
2022/04/23 11:50:18;;;;;;;8.52;6.68;;;17.10;99.90;;;;;;5093762;28;20424;-51
2022/04/23 11:52:45;;;;;;;8.00;6.15;;;17.20;99.90;;;;;;5092008;28;20503;-50
2022/04/23 11:55:22;;;;;;;14.68;7.70;;;18.50;99.90;;;;;;5093585;28;20097;-51
2022/04/23 11:57:55;;;;;;;9.05;6.65;;;18.40;99.90;;;;;;5091891;28;20046;-50
2022/04/23 12:00:22;;;;;;;9.15;6.38;;;17.30;99.90;;;;;;5092979;28;20035;-52
2022/04/23 12:02:48;;;;;;;8.52;6.68;;;18.90;99.90;;;;;;5092526;28;20039;-52
2022/04/23 12:05:23;;;;;;;8.38;6.25;;;17.50;99.80;;;;;;5093235;28;20040;-49
2022/04/23 12:07:49;;;;;;;9.45;7.25;;;19.50;99.90;;;;;;5092973;28;20441;-50
2022/04/23 12:10:14;;;;;;;10.95;6.32;;;17.70;99.90;;;;;;5092102;28;21032;-51
2022/04/23 12:12:41;;;;;;;11.88;7.00;;;17.70;99.90;;;;;;5090565;28;20046;-51
2022/04/23 12:15:14;;;;;;;8.95;6.60;;;17.70;99.90;;;;;;5092227;28;20968;-47
2022/04/23 12:17:54;;;;;;;12.65;7.13;;;17.50;99.50;;;;;;5093315;28;20496;-47
2022/04/23 12:20:25;;;;;;;7.82;5.95;;;17.50;99.40;;;;;;5094074;28;20292;-46
2022/04/23 12:23:01;;;;;;;8.70;5.47;;;17.40;99.20;;;;;;5094525;28;20046;-46
2022/04/23 12:25:28;;;;;;;8.60;6.72;;;17.30;99.70;;;;;;5096391;28;20281;-46
2022/04/23 12:42:00;;;;;;;9.52;5.40;;;17.40;99.10;;;;;;5095842;28;20112;-49
2022/04/23 12:44:32;;;;;;;7.50;4.78;;;17.80;99.00;;;;;;5096167;28;20067;-48
2022/04/23 12:47:00;;;;;;;7.75;6.18;;;17.50;98.90;;;;;;5096046;28;20670;-48
2022/04/23 12:49:45;;;;;;;7.32;5.68;;;18.30;99.60;;;;;;5096115;28;21898;-46
2022/04/23 12:52:17;;;;;;;7.70;5.22;;;18.10;99.90;;;;;;5096024;28;20043;-48
2022/04/23 12:55:36;;;;;;;8.63;5.15;;;17.60;97.70;;;;;;5095569;28;20409;-52
2022/04/23 12:58:06;;;;;;;11.32;6.00;;;17.50;97.20;;;;;;5051490;28;20110;-50
2022/04/23 13:00:38;;;;;;;6.75;5.45;;;18.00;98.70;;;;;;5036319;28;20048;-50
2022/04/23 13:03:17;;;;;;;;;;;17.50;98.30;;;;;;5053003;28;20066;-46
2022/04/23 13:05:43;;;;;;;9.50;5.65;;;17.20;97.60;;;;;;5052086;28;19924;-46
2022/04/23 13:10:53;;;;;;;9.00;5.35;;;17.50;97.90;;;;;;5050402;28;20047;-51
2022/04/23 13:13:21;;;;;;;9.13;5.50;;;17.50;97.00;;;;;;5050935;28;21632;-50
2022/04/23 13:15:47;;;;;;;11.40;5.72;;;17.60;97.80;;;;;;5052155;28;20333;-51
2022/04/23 13:18:12;;;;;;;7.55;5.10;;;17.90;97.20;;;;;;5052388;28;20162;-49
2022/04/23 13:20:39;;;;;;;7.43;4.80;;;19.20;98.80;;;;;;5050670;28;20048;-51
2022/04/23 13:23:05;;;;;;;7.97;4.88;;;18.90;97.80;;;;;;5051588;28;20044;-49
2022/04/23 13:25:31;;;;;;;8.10;4.63;;;17.60;97.80;;;;;;5050998;28;20174;-49
2022/04/23 13:27:56;;;;;;;10.75;4.75;;;17.70;96.80;;;;;;5050873;28;20470;-47